Time,TemperatureF,DewpointF,PressureIn,WindDirection,WindDirectionDegrees,WindSpeedMPH,WindSpeedGustMPH,Humidity,HourlyPrecipIn,Conditions,Clouds,dailyrainin,SoftwareType,DateUTC
2013-06-10 00:00:00,58.6,56.6,30.10,West,263,0.0,0.0,93,0.00,,,0.00,Wunderground v.1.15,2013-06-10 04:00:00,
2013-06-10 00:05:00,58.6,56.6,30.10,West,263,0.0,0.0,93,0.00,,,0.00,Wunderground v.1.15,2013-06-10 04:05:00,
2013-06-10 00:10:00,58.5,56.5,30.10,West,263,0.0,0.0,93,0.00,,,0.00,Wunderground v.1.15,2013-06-10 04:10:00,
2013-06-10 00:15:00,58.5,56.5,30.10,West,263,0.0,0.0,93,0.00,,,0.00,Wunderground v.1.15,2013-06-10 04:15:00,
2013-06-10 00:20:00,58.4,56.4,30.10,West,263,0.0,0.0,93,0.00,,,0.00,Wunderground v.1.15,2013-06-10 04:20:00,
2013-06-10 00:25:00,58.4,56.4,30.10,West,263,0.0,0.0,93,0.00,,,0.00,Wunderground v.1.15,2013-06-10 04:25:00,
2013-06-10 00:30:00,58.4,56.4,30.10,West,263,0.0,0.0,93,0.00,,,0.00,Wunderground v.1.15,2013-06-10 04:30:00,
2013-06-10 00:35:00,58.4,56.4,30.10,West,263,0.0,0.0,93,0.00,,,0.00,Wunderground v.1.15,2013-06-10 04:35:00,
2013-06-10 00:40:00,58.4,56.4,30.09,West,263,0.0,0.0,93,0.00,,,0.00,Wunderground v.1.15,2013-06-10 04:40:00,
2013-06-10 00:45:00,58.2,56.2,30.10,West,263,0.0,1.0,93,0.00,,,0.00,Wunderground v.1.15,2013-06-10 04:45:00,
2013-06-10 00:50:00,58.0,56.0,30.10,West,263,0.0,0.0,93,0.00,,,0.00,Wunderground v.1.15,2013-06-10 04:50:00,
2013-06-10 00:55:00,57.9,55.9,30.09,West,263,0.0,0.0,93,0.00,,,0.00,Wunderground v.1.15,2013-06-10 04:55:00,
2013-06-10 01:01:00,57.8,55.8,30.10,West,263,0.0,0.0,93,0.00,,,0.00,Wunderground v.1.15,2013-06-10 05:01:00,
2013-06-10 01:05:00,57.7,55.7,30.10,West,263,0.0,0.0,93,0.00,,,0.00,Wunderground v.1.15,2013-06-10 05:05:00,
2013-06-10 01:10:00,57.7,55.7,30.09,West,263,0.0,0.0,93,0.00,,,0.00,Wunderground v.1.15,2013-06-10 05:10:00,
2013-06-10 01:20:00,57.5,55.5,30.10,West,263,0.0,0.0,93,0.00,,,0.00,Wunderground v.1.15,2013-06-10 05:20:00,
2013-06-10 01:25:00,57.3,55.3,30.10,West,263,0.0,0.0,93,0.00,,,0.00,Wunderground v.1.15,2013-06-10 05:25:00,
2013-06-10 01:30:00,57.2,55.5,30.10,West,263,0.0,0.0,94,0.00,,,0.00,Wunderground v.1.15,2013-06-10 05:30:00,
2013-06-10 01:35:00,57.1,55.4,30.10,West,263,0.0,0.0,94,0.00,,,0.00,Wunderground v.1.15,2013-06-10 05:35:00,
2013-06-10 01:40:00,56.9,55.2,30.10,West,263,0.0,0.0,94,0.00,,,0.00,Wunderground v.1.15,2013-06-10 05:40:00,
2013-06-10 01:45:00,56.8,55.1,30.10,West,263,0.0,0.0,94,0.00,,,0.00,Wunderground v.1.15,2013-06-10 05:45:00,
2013-06-10 01:50:00,56.8,55.1,30.10,West,263,0.0,0.0,94,0.00,,,0.00,Wunderground v.1.15,2013-06-10 05:50:00,
2013-06-10 01:55:00,56.7,55.0,30.10,West,263,0.0,0.0,94,0.00,,,0.00,Wunderground v.1.15,2013-06-10 05:55:00,
2013-06-10 02:00:00,56.7,55.0,30.10,West,263,0.0,0.0,94,0.00,,,0.00,Wunderground v.1.15,2013-06-10 06:00:00,
2013-06-10 02:05:00,56.6,54.9,30.11,West,263,0.0,0.0,94,0.00,,,0.00,Wunderground v.1.15,2013-06-10 06:05:00,
2013-06-10 02:10:00,56.6,54.9,30.11,West,263,0.0,0.0,94,0.00,,,0.00,Wunderground v.1.15,2013-06-10 06:10:00,
2013-06-10 02:15:00,56.6,54.9,30.11,West,263,0.0,0.0,94,0.00,,,0.00,Wunderground v.1.15,2013-06-10 06:15:00,
2013-06-10 02:25:00,56.3,54.9,30.11,West,263,1.0,1.0,95,0.00,,,0.00,Wunderground v.1.15,2013-06-10 06:25:00,
2013-06-10 02:30:00,56.2,54.8,30.11,West,263,0.0,0.0,95,0.00,,,0.00,Wunderground v.1.15,2013-06-10 06:30:00,
2013-06-10 02:35:00,56.2,54.8,30.10,West,263,0.0,0.0,95,0.00,,,0.00,Wunderground v.1.15,2013-06-10 06:35:00,
2013-06-10 02:40:00,56.3,54.9,30.09,West,263,0.0,0.0,95,0.00,,,0.00,Wunderground v.1.15,2013-06-10 06:40:00,
2013-06-10 02:45:00,56.4,55.0,30.10,West,263,0.0,0.0,95,0.00,,,0.00,Wunderground v.1.15,2013-06-10 06:45:00,
2013-06-10 02:50:00,56.4,55.0,30.10,West,263,0.0,0.0,95,0.00,,,0.00,Wunderground v.1.15,2013-06-10 06:50:00,
2013-06-10 02:55:00,56.5,55.1,30.10,West,263,0.0,0.0,95,0.00,,,0.00,Wunderground v.1.15,2013-06-10 06:55:00,
2013-06-10 03:05:00,56.4,55.0,30.10,West,263,0.0,2.0,95,0.00,,,0.00,Wunderground v.1.15,2013-06-10 07:05:00,
2013-06-10 03:10:00,56.5,55.1,30.10,West,263,1.0,2.0,95,0.00,,,0.00,Wunderground v.1.15,2013-06-10 07:10:00,
2013-06-10 03:15:00,56.5,54.8,30.11,West,263,1.0,2.0,94,0.00,,,0.00,Wunderground v.1.15,2013-06-10 07:15:00,
2013-06-10 03:20:00,56.4,54.7,30.11,West,263,1.0,2.0,94,0.00,,,0.00,Wunderground v.1.15,2013-06-10 07:20:00,
2013-06-10 03:25:00,56.3,54.6,30.11,West,263,1.0,1.0,94,0.00,,,0.00,Wunderground v.1.15,2013-06-10 07:25:00,
2013-06-10 03:30:00,56.2,54.5,30.10,West,263,1.0,1.0,94,0.00,,,0.00,Wunderground v.1.15,2013-06-10 07:30:00,
2013-06-10 03:35:00,56.2,54.5,30.10,West,263,1.0,1.0,94,0.00,,,0.00,Wunderground v.1.15,2013-06-10 07:35:00,
2013-06-10 03:40:00,56.4,54.7,30.10,West,263,2.0,2.0,94,0.00,,,0.00,Wunderground v.1.15,2013-06-10 07:40:00,
2013-06-10 03:45:00,56.5,54.8,30.10,West,263,1.0,1.0,94,0.00,,,0.00,Wunderground v.1.15,2013-06-10 07:45:00,
2013-06-10 03:50:00,56.5,54.5,30.11,West,263,0.0,1.0,93,0.00,,,0.00,Wunderground v.1.15,2013-06-10 07:50:00,
2013-06-10 03:55:00,56.4,54.4,30.11,West,263,0.0,0.0,93,0.00,,,0.00,Wunderground v.1.15,2013-06-10 07:55:00,
2013-06-10 04:01:00,56.3,54.3,30.11,West,263,0.0,0.0,93,0.00,,,0.00,Wunderground v.1.15,2013-06-10 08:01:00,
2013-06-10 04:05:00,56.2,54.2,30.11,West,263,1.0,1.0,93,0.00,,,0.00,Wunderground v.1.15,2013-06-10 08:05:00,
2013-06-10 04:10:00,56.1,54.1,30.12,West,263,1.0,1.0,93,0.00,,,0.00,Wunderground v.1.15,2013-06-10 08:10:00,
2013-06-10 04:15:00,56.0,54.0,30.12,West,263,1.0,1.0,93,0.00,,,0.00,Wunderground v.1.15,2013-06-10 08:15:00,
2013-06-10 04:20:00,55.9,53.9,30.12,West,263,1.0,1.0,93,0.00,,,0.00,Wunderground v.1.15,2013-06-10 08:20:00,
2013-06-10 04:25:00,56.0,54.0,30.12,West,263,1.0,1.0,93,0.00,,,0.00,Wunderground v.1.15,2013-06-10 08:25:00,
2013-06-10 04:30:00,56.0,54.0,30.12,West,263,0.0,0.0,93,0.00,,,0.00,Wunderground v.1.15,2013-06-10 08:30:00,
2013-06-10 04:35:00,55.9,53.9,30.12,West,263,0.0,0.0,93,0.00,,,0.00,Wunderground v.1.15,2013-06-10 08:35:00,
2013-06-10 04:40:00,55.9,53.9,30.12,West,263,0.0,0.0,93,0.00,,,0.00,Wunderground v.1.15,2013-06-10 08:40:00,
2013-06-10 04:45:00,55.9,53.9,30.12,West,263,1.0,1.0,93,0.00,,,0.00,Wunderground v.1.15,2013-06-10 08:45:00,
2013-06-10 04:50:00,55.8,53.8,30.13,West,263,1.0,1.0,93,0.00,,,0.00,Wunderground v.1.15,2013-06-10 08:50:00,
2013-06-10 04:55:00,55.9,53.9,30.13,West,263,0.0,1.0,93,0.00,,,0.00,Wunderground v.1.15,2013-06-10 08:55:00,
2013-06-10 05:01:00,55.9,53.9,30.13,West,263,0.0,0.0,93,0.00,,,0.00,Wunderground v.1.15,2013-06-10 09:01:00,
2013-06-10 05:10:00,55.9,53.6,30.13,West,263,1.0,1.0,92,0.00,,,0.00,Wunderground v.1.15,2013-06-10 09:10:00,
2013-06-10 05:15:00,55.8,53.5,30.13,West,263,1.0,1.0,92,0.00,,,0.00,Wunderground v.1.15,2013-06-10 09:15:00,
2013-06-10 05:25:00,55.8,53.8,30.13,West,263,0.0,2.0,93,0.00,,,0.00,Wunderground v.1.15,2013-06-10 09:25:00,
2013-06-10 05:30:00,55.7,53.7,30.14,West,263,0.0,0.0,93,0.00,,,0.00,Wunderground v.1.15,2013-06-10 09:30:00,
2013-06-10 05:35:00,55.7,53.7,30.14,West,263,0.0,1.0,93,0.00,,,0.00,Wunderground v.1.15,2013-06-10 09:35:00,
2013-06-10 05:40:00,55.8,53.8,30.14,West,263,0.0,0.0,93,0.00,,,0.00,Wunderground v.1.15,2013-06-10 09:40:00,
2013-06-10 05:45:00,55.8,53.8,30.14,West,263,0.0,0.0,93,0.00,,,0.00,Wunderground v.1.15,2013-06-10 09:45:00,
2013-06-10 05:50:00,55.9,53.9,30.14,West,263,0.0,0.0,93,0.00,,,0.00,Wunderground v.1.15,2013-06-10 09:50:00,
2013-06-10 05:55:00,56.0,54.0,30.15,West,263,0.0,0.0,93,0.00,,,0.00,Wunderground v.1.15,2013-06-10 09:55:00,
2013-06-10 06:01:00,56.1,54.1,30.15,West,263,0.0,0.0,93,0.00,,,0.00,Wunderground v.1.15,2013-06-10 10:01:00,
2013-06-10 06:05:00,56.2,54.2,30.15,West,263,0.0,0.0,93,0.00,,,0.00,Wunderground v.1.15,2013-06-10 10:05:00,
2013-06-10 06:10:00,56.3,54.3,30.15,West,263,0.0,0.0,93,0.00,,,0.00,Wunderground v.1.15,2013-06-10 10:10:00,
2013-06-10 06:15:00,56.5,54.5,30.15,West,263,0.0,0.0,93,0.00,,,0.00,Wunderground v.1.15,2013-06-10 10:15:00,
2013-06-10 06:20:00,56.7,54.7,30.15,West,263,0.0,0.0,93,0.00,,,0.00,Wunderground v.1.15,2013-06-10 10:20:00,
2013-06-10 06:26:00,56.9,54.9,30.15,West,263,0.0,0.0,93,0.00,,,0.00,Wunderground v.1.15,2013-06-10 10:26:00,
2013-06-10 06:35:00,57.3,55.3,30.16,West,263,0.0,0.0,93,0.00,,,0.00,Wunderground v.1.15,2013-06-10 10:35:00,
2013-06-10 06:40:00,57.4,55.4,30.16,West,263,0.0,0.0,93,0.00,,,0.00,Wunderground v.1.15,2013-06-10 10:40:00,
2013-06-10 06:45:00,57.5,55.2,30.16,West,263,0.0,0.0,92,0.00,,,0.00,Wunderground v.1.15,2013-06-10 10:45:00,
2013-06-10 06:50:00,57.6,55.3,30.16,West,263,0.0,0.0,92,0.00,,,0.00,Wunderground v.1.15,2013-06-10 10:50:00,
2013-06-10 06:55:00,57.6,55.3,30.16,West,263,0.0,0.0,92,0.00,,,0.00,Wunderground v.1.15,2013-06-10 10:55:00,
2013-06-10 07:01:00,57.9,55.6,30.16,West,263,0.0,0.0,92,0.00,,,0.00,Wunderground v.1.15,2013-06-10 11:01:00,
2013-06-10 07:05:00,58.2,55.9,30.16,West,263,0.0,0.0,92,0.00,,,0.00,Wunderground v.1.15,2013-06-10 11:05:00,
2013-06-10 07:11:00,58.4,56.1,30.16,West,263,0.0,0.0,92,0.00,,,0.00,Wunderground v.1.15,2013-06-10 11:11:00,
2013-06-10 07:15:00,58.6,56.3,30.16,West,263,0.0,0.0,92,0.00,,,0.00,Wunderground v.1.15,2013-06-10 11:15:00,
2013-06-10 07:20:00,58.8,56.5,30.16,West,263,0.0,0.0,92,0.00,,,0.00,Wunderground v.1.15,2013-06-10 11:20:00,
2013-06-10 07:26:00,59.0,56.7,30.16,West,263,0.0,0.0,92,0.00,,,0.00,Wunderground v.1.15,2013-06-10 11:26:00,
2013-06-10 07:30:00,58.7,56.1,30.16,West,263,0.0,0.0,91,0.00,,,0.00,Wunderground v.1.15,2013-06-10 11:30:00,
2013-06-10 07:35:00,58.5,55.6,30.17,West,263,0.0,0.0,90,0.00,,,0.00,Wunderground v.1.15,2013-06-10 11:35:00,
2013-06-10 07:40:00,58.6,56.0,30.17,West,263,0.0,0.0,91,0.00,,,0.00,Wunderground v.1.15,2013-06-10 11:40:00,
2013-06-10 07:45:00,59.1,56.5,30.17,West,263,0.0,0.0,91,0.00,,,0.00,Wunderground v.1.15,2013-06-10 11:45:00,
2013-06-10 07:50:00,59.4,56.5,30.16,West,263,0.0,2.0,90,0.00,,,0.00,Wunderground v.1.15,2013-06-10 11:50:00,
2013-06-10 07:56:00,59.2,55.6,30.16,West,263,1.0,3.0,88,0.00,,,0.00,Wunderground v.1.15,2013-06-10 11:56:00,
2013-06-10 08:01:00,59.1,55.9,30.17,West,263,2.0,2.0,89,0.00,,,0.00,Wunderground v.1.15,2013-06-10 12:01:00,
2013-06-10 08:06:00,59.2,56.0,30.16,West,263,2.0,3.0,89,0.00,,,0.00,Wunderground v.1.15,2013-06-10 12:06:00,
2013-06-10 08:16:00,59.5,55.6,30.16,West,263,3.0,5.0,87,0.00,,,0.00,Wunderground v.1.15,2013-06-10 12:16:00,
2013-06-10 08:25:00,59.7,55.8,30.16,West,263,3.0,5.0,87,0.00,,,0.00,Wunderground v.1.15,2013-06-10 12:25:00,
2013-06-10 08:35:00,60.2,56.3,30.16,West,263,2.0,3.0,87,0.00,,,0.00,Wunderground v.1.15,2013-06-10 12:35:00,
2013-06-10 08:40:00,60.5,56.6,30.16,West,263,2.0,2.0,87,0.00,,,0.00,Wunderground v.1.15,2013-06-10 12:40:00,
2013-06-10 08:45:00,60.9,56.7,30.16,West,263,1.0,2.0,86,0.00,,,0.00,Wunderground v.1.15,2013-06-10 12:45:00,
2013-06-10 08:50:00,61.2,57.0,30.16,West,263,1.0,3.0,86,0.00,,,0.00,Wunderground v.1.15,2013-06-10 12:50:00,
2013-06-10 08:56:00,61.4,56.5,30.16,West,263,2.0,3.0,84,0.00,,,0.00,Wunderground v.1.15,2013-06-10 12:56:00,
2013-06-10 09:01:00,61.5,56.6,30.17,WNW,285,3.0,3.0,84,0.00,,,0.00,Wunderground v.1.15,2013-06-10 13:01:00,
2013-06-10 09:06:00,61.7,56.8,30.16,WNW,289,3.0,4.0,84,0.00,,,0.00,Wunderground v.1.15,2013-06-10 13:06:00,
2013-06-10 09:10:00,61.9,56.7,30.16,WNW,297,3.0,3.0,83,0.00,,,0.00,Wunderground v.1.15,2013-06-10 13:10:00,
2013-06-10 09:15:00,62.1,56.9,30.16,WNW,297,2.0,3.0,83,0.00,,,0.00,Wunderground v.1.15,2013-06-10 13:15:00,
2013-06-10 09:21:00,62.2,56.6,30.16,NW,309,3.0,3.0,82,0.00,,,0.00,Wunderground v.1.15,2013-06-10 13:21:00,
2013-06-10 09:25:00,62.3,56.7,30.16,NW,310,4.0,4.0,82,0.00,,,0.00,Wunderground v.1.15,2013-06-10 13:25:00,
2013-06-10 09:31:00,62.7,56.8,30.16,NW,310,3.0,3.0,81,0.00,,,0.00,Wunderground v.1.15,2013-06-10 13:31:00,
2013-06-10 09:35:00,63.1,56.8,30.16,NW,318,2.0,6.0,80,0.00,,,0.00,Wunderground v.1.15,2013-06-10 13:35:00,
2013-06-10 09:40:00,63.3,56.3,30.15,NW,318,2.0,5.0,78,0.00,,,0.00,Wunderground v.1.15,2013-06-10 13:40:00,
2013-06-10 09:46:00,63.6,56.3,30.15,NW,318,1.0,5.0,77,0.00,,,0.00,Wunderground v.1.15,2013-06-10 13:46:00,
2013-06-10 09:50:00,63.9,56.9,30.15,NW,318,1.0,1.0,78,0.00,,,0.00,Wunderground v.1.15,2013-06-10 13:50:00,
2013-06-10 09:55:00,64.0,57.0,30.16,NW,318,2.0,2.0,78,0.00,,,0.00,Wunderground v.1.15,2013-06-10 13:55:00,
2013-06-10 10:01:00,64.0,55.9,30.16,NW,318,3.0,6.0,75,0.00,,,0.00,Wunderground v.1.15,2013-06-10 14:01:00,
2013-06-10 10:06:00,63.5,55.4,30.16,NW,318,4.0,6.0,75,0.00,,,0.00,Wunderground v.1.15,2013-06-10 14:06:00,
2013-06-10 10:16:00,63.8,55.0,30.16,WNW,296,2.0,5.0,73,0.00,,,0.00,Wunderground v.1.15,2013-06-10 14:16:00,
2013-06-10 10:20:00,62.5,55.9,30.16,West,266,4.0,6.0,79,0.00,,,0.00,Wunderground v.1.15,2013-06-10 14:20:00,
2013-06-10 10:26:00,61.3,56.1,30.17,West,264,5.0,6.0,83,0.00,,,0.00,Wunderground v.1.15,2013-06-10 14:26:00,
2013-06-10 10:31:00,61.1,56.2,30.17,West,264,4.0,4.0,84,0.00,,,0.00,Wunderground v.1.15,2013-06-10 14:31:00,
2013-06-10 10:41:00,62.0,57.1,30.17,West,264,0.0,0.0,84,0.00,,,0.00,Wunderground v.1.15,2013-06-10 14:41:00,
2013-06-10 10:46:00,62.5,56.9,30.16,West,261,1.0,2.0,82,0.00,,,0.00,Wunderground v.1.15,2013-06-10 14:46:00,
2013-06-10 10:50:00,62.4,56.1,30.16,WSW,256,1.0,2.0,80,0.00,,,0.00,Wunderground v.1.15,2013-06-10 14:50:00,
2013-06-10 10:56:00,62.2,56.0,30.16,WSW,256,1.0,2.0,80,0.00,,,0.00,Wunderground v.1.15,2013-06-10 14:56:00,
2013-06-10 11:01:00,62.3,56.4,30.16,NW,313,1.0,1.0,81,0.00,,,0.00,Wunderground v.1.15,2013-06-10 15:01:00,
2013-06-10 11:06:00,62.6,56.3,30.16,NW,314,1.0,1.0,80,0.00,,,0.00,Wunderground v.1.15,2013-06-10 15:06:00,
2013-06-10 11:10:00,62.8,56.5,30.16,NNW,338,1.0,1.0,80,0.00,,,0.00,Wunderground v.1.15,2013-06-10 15:10:00,
2013-06-10 11:16:00,62.7,56.1,30.16,NNW,338,1.0,5.0,79,0.00,,,0.00,Wunderground v.1.15,2013-06-10 15:16:00,
2013-06-10 11:21:00,62.5,55.9,30.16,North,4,1.0,1.0,79,0.00,,,0.00,Wunderground v.1.15,2013-06-10 15:21:00,
2013-06-10 11:26:00,62.4,56.1,30.16,North,355,1.0,1.0,80,0.00,,,0.00,Wunderground v.1.15,2013-06-10 15:26:00,
2013-06-10 11:30:00,62.6,56.3,30.16,NNE,16,1.0,1.0,80,0.00,,,0.00,Wunderground v.1.15,2013-06-10 15:30:00,
2013-06-10 11:36:00,62.5,56.2,30.17,NNE,13,2.0,2.0,80,0.00,,,0.00,Wunderground v.1.15,2013-06-10 15:36:00,
2013-06-10 11:40:00,62.3,56.0,30.16,North,9,2.0,2.0,80,0.00,,,0.00,Wunderground v.1.15,2013-06-10 15:40:00,
2013-06-10 11:46:00,62.1,56.2,30.16,North,9,1.0,2.0,81,0.00,,,0.00,Wunderground v.1.15,2013-06-10 15:46:00,
2013-06-10 11:51:00,62.1,56.5,30.16,SSE,168,1.0,1.0,82,0.00,,,0.00,Wunderground v.1.15,2013-06-10 15:51:00,
2013-06-10 11:56:00,61.9,56.3,30.16,South,169,1.0,1.0,82,0.00,,,0.00,Wunderground v.1.15,2013-06-10 15:56:00,
2013-06-10 12:01:00,61.2,56.0,30.16,WSW,239,2.0,4.0,83,0.00,,,0.00,Wunderground v.1.15,2013-06-10 16:01:00,
2013-06-10 12:06:00,60.7,55.8,30.16,SSW,204,3.0,4.0,84,0.00,,,0.00,Wunderground v.1.15,2013-06-10 16:06:00,
2013-06-10 12:11:00,60.5,55.6,30.16,SW,220,2.0,2.0,84,0.00,,,0.00,Wunderground v.1.15,2013-06-10 16:11:00,
2013-06-10 12:15:00,60.5,56.0,30.16,SW,225,2.0,2.0,85,0.00,,,0.00,Wunderground v.1.15,2013-06-10 16:15:00,
2013-06-10 12:21:00,60.6,55.4,30.15,SSE,154,2.0,2.0,83,0.00,,,0.00,Wunderground v.1.15,2013-06-10 16:21:00,
2013-06-10 12:26:00,60.6,55.4,30.15,SSE,157,2.0,2.0,83,0.00,,,0.00,Wunderground v.1.15,2013-06-10 16:26:00,
2013-06-10 12:31:00,60.7,55.2,30.15,SSW,198,2.0,2.0,82,0.00,,,0.00,Wunderground v.1.15,2013-06-10 16:31:00,
2013-06-10 12:36:00,60.8,55.6,30.15,South,189,1.0,2.0,83,0.00,,,0.00,Wunderground v.1.15,2013-06-10 16:36:00,
2013-06-10 12:40:00,61.0,55.1,30.15,South,189,1.0,2.0,81,0.00,,,0.00,Wunderground v.1.15,2013-06-10 16:40:00,
2013-06-10 12:46:00,60.9,55.0,30.15,South,181,2.0,2.0,81,0.00,,,0.00,Wunderground v.1.15,2013-06-10 16:46:00,
2013-06-10 12:51:00,60.4,54.2,30.15,WSW,237,3.0,3.0,80,0.00,,,0.00,Wunderground v.1.15,2013-06-10 16:51:00,
2013-06-10 13:01:00,60.9,54.3,30.15,SW,220,1.0,1.0,79,0.00,,,0.00,Wunderground v.1.15,2013-06-10 17:01:00,
2013-06-10 13:05:00,61.0,54.1,30.15,South,189,1.0,1.0,78,0.00,,,0.00,Wunderground v.1.15,2013-06-10 17:05:00,
2013-06-10 13:11:00,61.3,54.0,30.15,South,184,2.0,2.0,77,0.00,,,0.00,Wunderground v.1.15,2013-06-10 17:11:00,
2013-06-10 13:16:00,61.3,53.3,30.15,SSE,168,2.0,2.0,75,0.00,,,0.00,Wunderground v.1.15,2013-06-10 17:16:00,
2013-06-10 13:26:00,61.0,53.4,30.15,SSW,200,2.0,4.0,76,0.00,,,0.00,Wunderground v.1.15,2013-06-10 17:26:00,
2013-06-10 13:31:00,60.8,53.5,30.15,South,172,2.0,2.0,77,0.00,,,0.00,Wunderground v.1.15,2013-06-10 17:31:00,
2013-06-10 13:36:00,60.8,53.9,30.15,South,183,2.0,2.0,78,0.00,,,0.00,Wunderground v.1.15,2013-06-10 17:36:00,
2013-06-10 13:41:00,60.7,53.8,30.15,SW,234,2.0,2.0,78,0.00,,,0.00,Wunderground v.1.15,2013-06-10 17:41:00,
2013-06-10 13:46:00,60.7,53.8,30.15,SW,225,2.0,3.0,78,0.00,,,0.00,Wunderground v.1.15,2013-06-10 17:46:00,
2013-06-10 13:51:00,60.4,53.9,30.15,West,263,2.0,4.0,79,0.00,,,0.00,Wunderground v.1.15,2013-06-10 17:51:00,
2013-06-10 13:56:00,60.4,53.9,30.15,SSE,164,3.0,4.0,79,0.00,,,0.00,Wunderground v.1.15,2013-06-10 17:56:00,
2013-06-10 14:01:00,60.5,54.6,30.15,SSW,198,2.0,6.0,81,0.00,,,0.00,Wunderground v.1.15,2013-06-10 18:01:00,
2013-06-10 14:06:00,60.2,54.3,30.15,WSW,245,2.0,6.0,81,0.00,,,0.00,Wunderground v.1.15,2013-06-10 18:06:00,
2013-06-10 14:11:00,60.1,54.6,30.15,WSW,246,2.0,2.0,82,0.00,,,0.00,Wunderground v.1.15,2013-06-10 18:11:00,
2013-06-10 14:16:00,59.9,54.4,30.15,West,264,2.0,2.0,82,0.00,,,0.00,Wunderground v.1.15,2013-06-10 18:16:00,
2013-06-10 14:21:00,60.1,54.9,30.15,West,264,2.0,3.0,83,0.00,,,0.00,Wunderground v.1.15,2013-06-10 18:21:00,
2013-06-10 14:26:00,60.1,54.2,30.15,WSW,258,2.0,4.0,81,0.00,,,0.00,Wunderground v.1.15,2013-06-10 18:26:00,
2013-06-10 14:31:00,59.8,54.3,30.15,WSW,249,4.0,4.0,82,0.00,,,0.00,Wunderground v.1.15,2013-06-10 18:31:00,
2013-06-10 14:36:00,59.9,54.7,30.14,WSW,253,4.0,4.0,83,0.00,,,0.00,Wunderground v.1.15,2013-06-10 18:36:00,
2013-06-10 14:41:00,60.1,54.9,30.15,WSW,253,3.0,3.0,83,0.00,,,0.00,Wunderground v.1.15,2013-06-10 18:41:00,
2013-06-10 14:46:00,60.3,55.1,30.14,WSW,255,3.0,3.0,83,0.00,,,0.00,Wunderground v.1.15,2013-06-10 18:46:00,
2013-06-10 14:51:00,60.3,54.8,30.14,WSW,256,3.0,5.0,82,0.00,,,0.00,Wunderground v.1.15,2013-06-10 18:51:00,
2013-06-10 14:56:00,60.0,54.5,30.14,WSW,255,3.0,5.0,82,0.00,,,0.00,Wunderground v.1.15,2013-06-10 18:56:00,
2013-06-10 15:01:00,60.4,55.5,30.14,SW,215,2.0,2.0,84,0.00,,,0.00,Wunderground v.1.15,2013-06-10 19:01:00,
2013-06-10 15:11:00,60.3,55.1,30.13,SW,229,3.0,3.0,83,0.00,,,0.00,Wunderground v.1.15,2013-06-10 19:11:00,
2013-06-10 15:16:00,60.4,55.2,30.13,WSW,237,3.0,3.0,83,0.00,,,0.00,Wunderground v.1.15,2013-06-10 19:16:00,
2013-06-10 15:21:00,60.4,55.2,30.13,WSW,238,3.0,3.0,83,0.00,,,0.00,Wunderground v.1.15,2013-06-10 19:21:00,
2013-06-10 15:26:00,60.4,54.9,30.13,WSW,245,3.0,4.0,82,0.00,,,0.00,Wunderground v.1.15,2013-06-10 19:26:00,
2013-06-10 15:31:00,60.3,55.1,30.13,WSW,248,3.0,3.0,83,0.00,,,0.00,Wunderground v.1.15,2013-06-10 19:31:00,
2013-06-10 15:36:00,60.5,55.3,30.13,SW,232,2.0,4.0,83,0.00,,,0.00,Wunderground v.1.15,2013-06-10 19:36:00,
2013-06-10 15:46:00,60.4,55.2,30.12,SSW,193,2.0,2.0,83,0.00,,,0.00,Wunderground v.1.15,2013-06-10 19:46:00,
2013-06-10 15:51:00,60.1,55.2,30.12,SSW,201,3.0,3.0,84,0.00,,,0.00,Wunderground v.1.15,2013-06-10 19:51:00,
2013-06-10 15:56:00,59.9,55.1,30.12,SW,235,2.0,3.0,84,0.00,,,0.00,Wunderground v.1.15,2013-06-10 19:56:00,
2013-06-10 16:02:00,59.7,55.2,30.12,SW,233,2.0,2.0,85,0.00,,,0.00,Wunderground v.1.15,2013-06-10 20:02:00,
2013-06-10 16:06:00,59.6,55.1,30.12,SW,225,1.0,2.0,85,0.00,,,0.00,Wunderground v.1.15,2013-06-10 20:06:00,
2013-06-10 16:16:00,59.4,54.9,30.12,South,186,1.0,1.0,85,0.00,,,0.00,Wunderground v.1.15,2013-06-10 20:16:00,
2013-06-10 16:21:00,59.3,55.1,30.12,South,186,1.0,1.0,86,0.00,,,0.00,Wunderground v.1.15,2013-06-10 20:21:00,
2013-06-10 16:26:00,59.2,55.0,30.11,South,186,1.0,2.0,86,0.00,,,0.00,Wunderground v.1.15,2013-06-10 20:26:00,
2013-06-10 16:31:00,58.9,55.0,30.11,South,182,2.0,4.0,87,0.00,,,0.00,Wunderground v.1.15,2013-06-10 20:31:00,
2013-06-10 16:36:00,58.8,54.9,30.11,South,182,2.0,4.0,87,0.00,,,0.00,Wunderground v.1.15,2013-06-10 20:36:00,
2013-06-10 16:41:00,58.7,55.2,30.11,SSW,192,2.0,2.0,88,0.00,,,0.00,Wunderground v.1.15,2013-06-10 20:41:00,
2013-06-10 16:46:00,58.5,55.0,30.11,SSW,211,3.0,4.0,88,0.00,,,0.00,Wunderground v.1.15,2013-06-10 20:46:00,
2013-06-10 16:51:00,58.5,55.0,30.10,SW,225,2.0,3.0,88,0.00,,,0.00,Wunderground v.1.15,2013-06-10 20:51:00,
2013-06-10 16:56:00,58.5,55.0,30.10,SW,215,1.0,3.0,88,0.00,,,0.00,Wunderground v.1.15,2013-06-10 20:56:00,
2013-06-10 17:01:00,58.5,55.0,30.10,SSW,210,1.0,1.0,88,0.00,,,0.00,Wunderground v.1.15,2013-06-10 21:01:00,
2013-06-10 17:06:00,58.5,55.0,30.09,SSW,210,1.0,1.0,88,0.00,,,0.00,Wunderground v.1.15,2013-06-10 21:06:00,
2013-06-10 17:11:00,58.6,55.1,30.10,SSW,210,1.0,1.0,88,0.00,,,0.00,Wunderground v.1.15,2013-06-10 21:11:00,
2013-06-10 17:15:00,58.5,55.0,30.09,SSW,198,1.0,4.0,88,0.00,,,0.00,Wunderground v.1.15,2013-06-10 21:15:00,
2013-06-10 17:20:00,58.4,54.9,30.09,SSW,198,1.0,1.0,88,0.00,,,0.00,Wunderground v.1.15,2013-06-10 21:20:00,
2013-06-10 17:25:00,58.3,54.8,30.09,SSW,198,1.0,4.0,88,0.00,,,0.00,Wunderground v.1.15,2013-06-10 21:25:00,
2013-06-10 17:30:00,58.2,55.0,30.09,SSW,198,1.0,2.0,89,0.00,,,0.00,Wunderground v.1.15,2013-06-10 21:30:00,
2013-06-10 17:35:00,58.2,55.0,30.09,South,181,1.0,2.0,89,0.00,,,0.00,Wunderground v.1.15,2013-06-10 21:35:00,
2013-06-10 17:40:00,58.1,54.9,30.09,South,181,2.0,5.0,89,0.00,,,0.00,Wunderground v.1.15,2013-06-10 21:40:00,
2013-06-10 17:50:00,58.0,54.8,30.09,South,181,1.0,1.0,89,0.00,,,0.00,Wunderground v.1.15,2013-06-10 21:50:00,
2013-06-10 17:55:00,58.0,54.8,30.09,South,182,1.0,1.0,89,0.00,,,0.00,Wunderground v.1.15,2013-06-10 21:55:00,
2013-06-10 18:00:00,57.9,55.0,30.08,South,182,1.0,4.0,90,0.00,,,0.00,Wunderground v.1.15,2013-06-10 22:00:00,
2013-06-10 18:05:00,57.9,55.0,30.08,South,181,1.0,4.0,90,0.00,,,0.00,Wunderground v.1.15,2013-06-10 22:05:00,
2013-06-10 18:15:00,57.8,54.9,30.08,South,183,2.0,2.0,90,0.00,,,0.00,Wunderground v.1.15,2013-06-10 22:15:00,
2013-06-10 18:20:00,57.7,54.8,30.08,South,183,2.0,4.0,90,0.00,,,0.00,Wunderground v.1.15,2013-06-10 22:20:00,
2013-06-10 18:25:00,57.6,54.7,30.08,South,181,2.0,4.0,90,0.00,,,0.00,Wunderground v.1.15,2013-06-10 22:25:00,
2013-06-10 18:30:00,57.5,54.6,30.08,South,182,2.0,4.0,90,0.00,,,0.00,Wunderground v.1.15,2013-06-10 22:30:00,
2013-06-10 18:35:00,57.5,54.9,30.08,South,182,2.0,4.0,91,0.00,,,0.00,Wunderground v.1.15,2013-06-10 22:35:00,
2013-06-10 18:40:00,57.5,54.9,30.08,South,180,2.0,5.0,91,0.00,,,0.00,Wunderground v.1.15,2013-06-10 22:40:00,
2013-06-10 18:45:00,57.4,54.8,30.08,South,179,1.0,5.0,91,0.00,,,0.00,Wunderground v.1.15,2013-06-10 22:45:00,
2013-06-10 18:50:00,57.4,54.8,30.07,SSW,195,2.0,2.0,91,0.00,,,0.00,Wunderground v.1.15,2013-06-10 22:50:00,
2013-06-10 18:55:00,57.4,54.8,30.07,SSW,198,2.0,2.0,91,0.00,,,0.00,Wunderground v.1.15,2013-06-10 22:55:00,
2013-06-10 19:00:00,57.3,54.7,30.07,SSW,198,1.0,2.0,91,0.00,,,0.00,Wunderground v.1.15,2013-06-10 23:00:00,
2013-06-10 19:05:00,57.3,55.0,30.07,SSW,198,1.0,4.0,92,0.00,,,0.00,Wunderground v.1.15,2013-06-10 23:05:00,
2013-06-10 19:10:00,57.3,55.0,30.07,SSW,199,2.0,2.0,92,0.00,,,0.00,Wunderground v.1.15,2013-06-10 23:10:00,
2013-06-10 19:15:00,57.2,54.9,30.07,SSW,199,1.0,2.0,92,0.00,,,0.00,Wunderground v.1.15,2013-06-10 23:15:00,
2013-06-10 19:20:00,57.2,54.9,30.07,SSW,198,1.0,1.0,92,0.00,,,0.00,Wunderground v.1.15,2013-06-10 23:20:00,
2013-06-10 19:25:00,57.1,54.8,30.07,SSW,198,2.0,2.0,92,0.00,,,0.00,Wunderground v.1.15,2013-06-10 23:25:00,
2013-06-10 19:30:00,57.1,54.8,30.07,South,188,2.0,4.0,92,0.00,,,0.00,Wunderground v.1.15,2013-06-10 23:30:00,
2013-06-10 19:35:00,57.0,55.0,30.07,South,189,2.0,4.0,93,0.00,,,0.00,Wunderground v.1.15,2013-06-10 23:35:00,
2013-06-10 19:40:00,57.0,55.0,30.07,South,185,2.0,2.0,93,0.00,,,0.00,Wunderground v.1.15,2013-06-10 23:40:00,
2013-06-10 19:45:00,56.9,54.9,30.07,South,182,2.0,2.0,93,0.00,,,0.00,Wunderground v.1.15,2013-06-10 23:45:00,
2013-06-10 19:50:00,56.9,54.9,30.07,South,182,2.0,2.0,93,0.00,,,0.00,Wunderground v.1.15,2013-06-10 23:50:00,
2013-06-10 19:55:00,56.8,54.8,30.06,South,181,1.0,4.0,93,0.00,,,0.00,Wunderground v.1.15,2013-06-10 23:55:00,
2013-06-10 20:00:00,56.8,54.8,30.06,South,178,2.0,2.0,93,0.00,,,0.00,Wunderground v.1.15,2013-06-11 00:00:00,
2013-06-10 20:05:00,56.7,54.7,30.06,South,170,2.0,2.0,93,0.00,,,0.00,Wunderground v.1.15,2013-06-11 00:05:00,
2013-06-10 20:10:00,56.6,54.6,30.06,South,171,2.0,2.0,93,0.00,,,0.00,Wunderground v.1.15,2013-06-11 00:10:00,
2013-06-10 20:15:00,56.6,54.9,30.06,South,170,1.0,4.0,94,0.00,,,0.00,Wunderground v.1.15,2013-06-11 00:15:00,
2013-06-10 20:20:00,56.6,54.6,30.06,South,171,2.0,2.0,93,0.00,,,0.00,Wunderground v.1.15,2013-06-11 00:20:00,
2013-06-10 20:25:00,56.5,54.8,30.05,South,170,1.0,2.0,94,0.00,,,0.00,Wunderground v.1.15,2013-06-11 00:25:00,
2013-06-10 20:30:00,56.5,54.8,30.05,South,170,1.0,4.0,94,0.00,,,0.00,Wunderground v.1.15,2013-06-11 00:30:00,
2013-06-10 20:35:00,56.5,54.8,30.05,South,170,1.0,4.0,94,0.00,,,0.00,Wunderground v.1.15,2013-06-11 00:35:00,
2013-06-10 20:40:00,56.5,54.8,30.05,South,170,1.0,1.0,94,0.00,,,0.00,Wunderground v.1.15,2013-06-11 00:40:00,
2013-06-10 20:45:00,56.4,54.7,30.05,South,170,1.0,1.0,94,0.00,,,0.00,Wunderground v.1.15,2013-06-11 00:45:00,
2013-06-10 20:50:00,56.4,54.7,30.05,South,171,1.0,2.0,94,0.00,,,0.00,Wunderground v.1.15,2013-06-11 00:50:00,
2013-06-10 20:55:00,56.4,54.7,30.05,South,171,1.0,2.0,94,0.00,,,0.00,Wunderground v.1.15,2013-06-11 00:55:00,
2013-06-10 21:00:00,56.4,54.7,30.05,SSW,200,1.0,4.0,94,0.00,,,0.00,Wunderground v.1.15,2013-06-11 01:00:00,
2013-06-10 21:05:00,56.4,54.7,30.05,SW,225,2.0,6.0,94,0.00,,,0.00,Wunderground v.1.15,2013-06-11 01:05:00,
2013-06-10 21:10:00,56.4,54.7,30.05,SW,225,1.0,3.0,94,0.00,,,0.00,Wunderground v.1.15,2013-06-11 01:10:00,
2013-06-10 21:15:00,56.3,54.6,30.05,SSW,206,2.0,3.0,94,0.00,,,0.00,Wunderground v.1.15,2013-06-11 01:15:00,
2013-06-10 21:20:00,56.3,54.6,30.05,SSW,210,2.0,5.0,94,0.00,,,0.00,Wunderground v.1.15,2013-06-11 01:20:00,
2013-06-10 21:25:00,56.2,54.8,30.05,SW,220,2.0,5.0,95,0.00,,,0.00,Wunderground v.1.15,2013-06-11 01:25:00,
2013-06-10 21:30:00,56.2,54.5,30.05,SW,220,2.0,2.0,94,0.00,,,0.00,Wunderground v.1.15,2013-06-11 01:30:00,
2013-06-10 21:35:00,56.2,54.5,30.05,SSW,209,2.0,4.0,94,0.00,,,0.00,Wunderground v.1.15,2013-06-11 01:35:00,
2013-06-10 21:40:00,56.1,54.4,30.05,SW,215,2.0,2.0,94,0.00,,,0.00,Wunderground v.1.15,2013-06-11 01:40:00,
2013-06-10 21:45:00,56.1,54.7,30.05,SW,215,2.0,2.0,95,0.00,,,0.00,Wunderground v.1.15,2013-06-11 01:45:00,
2013-06-10 21:50:00,56.1,54.7,30.05,WSW,237,1.0,1.0,95,0.00,,,0.00,Wunderground v.1.15,2013-06-11 01:50:00,
2013-06-10 21:55:00,56.1,54.7,30.05,SW,215,2.0,2.0,95,0.00,,,0.00,Wunderground v.1.15,2013-06-11 01:55:00,
2013-06-10 22:00:00,56.0,54.6,30.05,SW,215,1.0,1.0,95,0.00,,,0.00,Wunderground v.1.15,2013-06-11 02:00:00,
2013-06-10 22:05:00,56.0,54.6,30.05,SW,215,1.0,1.0,95,0.00,,,0.00,Wunderground v.1.15,2013-06-11 02:05:00,
2013-06-10 22:10:00,56.0,54.6,30.05,SW,215,1.0,1.0,95,0.00,,,0.00,Wunderground v.1.15,2013-06-11 02:10:00,
2013-06-10 22:15:00,55.9,54.5,30.04,SW,215,1.0,1.0,95,0.00,,,0.00,Wunderground v.1.15,2013-06-11 02:15:00,
2013-06-10 22:20:00,55.9,54.5,30.04,SSW,208,1.0,1.0,95,0.00,,,0.00,Wunderground v.1.15,2013-06-11 02:20:00,
2013-06-10 22:25:00,55.9,54.5,30.04,SSW,208,1.0,1.0,95,0.00,,,0.00,Wunderground v.1.15,2013-06-11 02:25:00,
2013-06-10 22:30:00,55.9,54.5,30.04,SSW,208,0.0,2.0,95,0.00,,,0.00,Wunderground v.1.15,2013-06-11 02:30:00,
2013-06-10 22:35:00,55.8,54.4,30.04,SSW,208,1.0,2.0,95,0.00,,,0.00,Wunderground v.1.15,2013-06-11 02:35:00,
2013-06-10 22:40:00,55.8,54.4,30.03,SSW,208,1.0,1.0,95,0.00,,,0.00,Wunderground v.1.15,2013-06-11 02:40:00,
2013-06-10 22:45:00,55.8,54.4,30.03,SSW,208,1.0,1.0,95,0.00,,,0.00,Wunderground v.1.15,2013-06-11 02:45:00,
2013-06-10 22:55:00,55.7,54.3,30.02,SSW,208,0.0,1.0,95,0.00,,,0.00,Wunderground v.1.15,2013-06-11 02:55:00,
2013-06-10 23:00:00,55.7,54.3,30.02,SSW,208,0.0,0.0,95,0.00,,,0.00,Wunderground v.1.15,2013-06-11 03:00:00,
2013-06-10 23:05:00,55.7,54.6,30.02,SSW,208,0.0,0.0,96,0.00,,,0.00,Wunderground v.1.15,2013-06-11 03:05:00,
2013-06-10 23:10:00,55.7,54.6,30.02,SSW,208,0.0,0.0,96,0.00,,,0.00,Wunderground v.1.15,2013-06-11 03:10:00,
2013-06-10 23:15:00,55.7,54.6,30.02,SSW,208,0.0,0.0,96,0.00,,,0.00,Wunderground v.1.15,2013-06-11 03:15:00,
2013-06-10 23:20:00,55.6,54.5,30.02,SSW,208,0.0,0.0,96,0.00,,,0.00,Wunderground v.1.15,2013-06-11 03:20:00,
2013-06-10 23:25:00,55.6,54.5,30.02,SSW,208,0.0,0.0,96,0.00,,,0.00,Wunderground v.1.15,2013-06-11 03:25:00,
2013-06-10 23:30:00,55.6,54.5,30.01,SSW,208,0.0,0.0,96,0.00,,,0.00,Wunderground v.1.15,2013-06-11 03:30:00,
2013-06-10 23:35:00,55.5,54.4,30.01,SSW,208,0.0,0.0,96,0.00,,,0.00,Wunderground v.1.15,2013-06-11 03:35:00,
2013-06-10 23:40:00,55.5,54.4,30.01,SSW,208,0.0,0.0,96,0.00,,,0.00,Wunderground v.1.15,2013-06-11 03:40:00,
2013-06-10 23:45:00,55.5,54.4,30.01,SSW,208,0.0,1.0,96,0.00,,,0.00,Wunderground v.1.15,2013-06-11 03:45:00,
2013-06-10 23:50:00,55.5,54.4,30.01,SSW,208,0.0,0.0,96,0.00,,,0.00,Wunderground v.1.15,2013-06-11 03:50:00,
2013-06-10 23:55:00,55.5,54.4,30.01,SSW,208,0.0,0.0,96,0.00,,,0.00,Wunderground v.1.15,2013-06-11 03:55:00,